createdAt,value
2022-08-26T00:02:37.000Z,42.62
2022-08-26T00:07:34.000Z,41.68
2022-08-26T00:12:47.000Z,40.85
2022-08-26T00:17:36.000Z,40.51
2022-08-26T00:22:34.000Z,40.97
2022-08-26T00:27:35.000Z,41.31
2022-08-26T00:32:36.000Z,42.67
2022-08-26T00:37:35.000Z,42.26
2022-08-26T00:42:35.000Z,42.68
2022-08-26T00:47:35.000Z,43.86
2022-08-26T00:52:35.000Z,42.89
2022-08-26T00:57:36.000Z,42.26
2022-08-26T01:02:35.000Z,42.56
2022-08-26T01:07:35.000Z,42.56
2022-08-26T01:12:35.000Z,43.28
2022-08-26T01:22:38.000Z,42.46
2022-08-26T01:27:35.000Z,42.11
2022-08-26T01:32:35.000Z,41.98
2022-08-26T01:37:34.000Z,43
2022-08-26T01:42:34.000Z,43.81
2022-08-26T01:47:35.000Z,43.56
2022-08-26T01:52:38.000Z,43.56
2022-08-26T01:57:35.000Z,42.88
2022-08-26T02:02:35.000Z,41.02
2022-08-26T02:07:37.000Z,38.75
2022-08-26T02:12:36.000Z,39.44
2022-08-26T02:17:35.000Z,39.69
2022-08-26T02:22:35.000Z,41.24
2022-08-26T02:27:38.000Z,41.06
2022-08-26T02:32:37.000Z,42.45
2022-08-26T02:37:35.000Z,42.5
2022-08-26T02:42:35.000Z,43.18
2022-08-26T02:47:34.000Z,42.84
2022-08-26T02:52:34.000Z,44.35
2022-08-26T02:57:35.000Z,41.59
2022-08-26T03:07:35.000Z,40.55
2022-08-26T03:12:35.000Z,40.89
2022-08-26T03:17:37.000Z,40.73
2022-08-26T03:22:34.000Z,42.69
2022-08-26T03:27:35.000Z,42.06
2022-08-26T03:32:37.000Z,41.82
2022-08-26T03:37:35.000Z,44.3
2022-08-26T03:42:34.000Z,47.91
2022-08-26T03:47:35.000Z,47.49
2022-08-26T03:52:35.000Z,48.74
2022-08-26T03:57:34.000Z,50.07
2022-08-26T04:07:35.000Z,50.43
2022-08-26T04:12:36.000Z,50.43
2022-08-26T04:17:35.000Z,55.76
2022-08-26T04:22:35.000Z,53.64
2022-08-26T04:27:35.000Z,54.04
2022-08-26T04:32:34.000Z,53.95
2022-08-26T04:37:35.000Z,53.49
2022-08-26T04:42:36.000Z,54.87
2022-08-26T04:47:40.000Z,59.61
2022-08-26T04:52:35.000Z,117.37
2022-08-26T04:57:35.000Z,150.62
2022-08-26T05:02:35.000Z,127.35
2022-08-26T05:07:35.000Z,150.16
2022-08-26T05:12:34.000Z,153.51
2022-08-26T05:17:35.000Z,147.21
2022-08-26T05:22:35.000Z,143.81
2022-08-26T05:27:34.000Z,143.81
2022-08-26T05:32:34.000Z,141.83
2022-08-26T05:37:35.000Z,131.47
2022-08-26T05:42:34.000Z,104.06
2022-08-26T05:47:35.000Z,95.43
2022-08-26T05:52:36.000Z,90.23
2022-08-26T05:57:35.000Z,77.36
2022-08-26T06:02:35.000Z,68.43
2022-08-26T06:07:35.000Z,60.14
2022-08-26T06:12:35.000Z,61.48
2022-08-26T06:17:35.000Z,52.45
2022-08-26T06:27:42.000Z,44.49
2022-08-26T06:32:35.000Z,54.22
2022-08-26T06:37:35.000Z,42.57
2022-08-26T06:42:34.000Z,49.44
2022-08-26T06:47:35.000Z,43.58
2022-08-26T06:52:34.000Z,36.93
2022-08-26T06:57:35.000Z,32.73
2022-08-26T07:02:38.000Z,32.73
2022-08-26T07:12:35.000Z,23.65
2022-08-26T07:17:35.000Z,23.93
2022-08-26T07:22:35.000Z,24.96
2022-08-26T07:27:35.000Z,26.65
2022-08-26T07:32:35.000Z,24.41
2022-08-26T07:37:35.000Z,22.04
2022-08-26T07:42:35.000Z,19.26
2022-08-26T07:47:36.000Z,16.93
2022-08-26T07:52:37.000Z,16.93
2022-08-26T07:57:34.000Z,17.72
2022-08-26T08:02:35.000Z,16.7
2022-08-26T08:07:55.000Z,15.59
2022-08-26T08:12:35.000Z,16.45
2022-08-26T08:22:37.000Z,16.49
2022-08-26T08:27:35.000Z,15.29
2022-08-26T08:32:35.000Z,16.1
2022-08-26T08:37:35.000Z,15.6
2022-08-26T08:42:34.000Z,14.97
2022-08-26T08:47:34.000Z,15.48
2022-08-26T08:52:36.000Z,14.07
2022-08-26T08:57:35.000Z,13.8
2022-08-26T09:02:36.000Z,12.01
2022-08-26T09:07:36.000Z,12.9
2022-08-26T09:12:40.000Z,15.56
2022-08-26T09:17:35.000Z,15.1
2022-08-26T09:22:34.000Z,15.1
2022-08-26T09:27:35.000Z,14.91
2022-08-26T09:32:35.000Z,15.3
2022-08-26T09:37:34.000Z,14.9
2022-08-26T09:42:35.000Z,14.42
2022-08-26T09:47:34.000Z,15.07
2022-08-26T09:52:34.000Z,16.23
2022-08-26T09:57:34.000Z,15.98
2022-08-26T10:02:35.000Z,15.06
2022-08-26T10:07:34.000Z,13.96
2022-08-26T10:12:35.000Z,14.2
2022-08-26T10:17:35.000Z,14.04
2022-08-26T10:22:35.000Z,14.43
2022-08-26T10:27:34.000Z,14.12
2022-08-26T10:32:35.000Z,15.44
2022-08-26T10:37:35.000Z,15.44
2022-08-26T10:42:34.000Z,15.06
2022-08-26T10:47:35.000Z,14.45
2022-08-26T10:52:39.000Z,14.34
2022-08-26T10:57:35.000Z,13.88
2022-08-26T11:02:35.000Z,13.38
2022-08-26T11:07:35.000Z,14.23
2022-08-26T11:12:34.000Z,14.66
2022-08-26T11:17:35.000Z,14.29
2022-08-26T11:22:35.000Z,14.53
2022-08-26T11:27:35.000Z,11.77
2022-08-26T11:32:35.000Z,11.47
2022-08-26T11:37:35.000Z,10.64
2022-08-26T11:42:37.000Z,10.97
2022-08-26T11:47:35.000Z,12.35
2022-08-26T11:52:35.000Z,12.35
2022-08-26T11:57:35.000Z,13.19
2022-08-26T12:02:36.000Z,12.68
2022-08-26T12:07:35.000Z,12.43
2022-08-26T12:12:36.000Z,11.97
2022-08-26T12:17:35.000Z,12.77
2022-08-26T12:22:34.000Z,11.64
2022-08-26T12:27:35.000Z,9.88
2022-08-26T12:32:35.000Z,9.44
2022-08-26T12:37:34.000Z,9.71
2022-08-26T12:42:35.000Z,11.35
2022-08-26T12:47:52.000Z,11.34
2022-08-26T12:52:35.000Z,12.02
2022-08-26T12:57:35.000Z,13.41
2022-08-26T13:02:35.000Z,13.61
2022-08-26T13:07:35.000Z,13.61
2022-08-26T13:12:35.000Z,13.6
2022-08-26T13:17:35.000Z,12.84
2022-08-26T13:22:35.000Z,13.26
2022-08-26T13:27:35.000Z,13.11
2022-08-26T13:32:37.000Z,11.88
2022-08-26T13:37:45.000Z,11.95
2022-08-26T13:42:34.000Z,12.46
2022-08-26T13:47:34.000Z,12.77
2022-08-26T13:52:41.000Z,13.93
2022-08-26T13:57:35.000Z,12.86
2022-08-26T14:02:34.000Z,12.78
2022-08-26T14:07:34.000Z,14.83
2022-08-26T14:12:35.000Z,13.94
2022-08-26T14:17:35.000Z,13.94
2022-08-26T14:22:35.000Z,16.64
2022-08-26T14:32:35.000Z,13.6
2022-08-26T14:37:35.000Z,13.7
2022-08-26T14:42:35.000Z,13.88
2022-08-26T14:47:35.000Z,13.88
2022-08-26T14:52:35.000Z,13.98
2022-08-26T14:57:35.000Z,14.07
2022-08-26T15:02:50.000Z,15.01
2022-08-26T15:07:34.000Z,14.71
2022-08-26T15:12:34.000Z,13.94
2022-08-26T15:17:34.000Z,13.5
2022-08-26T15:22:39.000Z,17.19
2022-08-26T15:27:35.000Z,15.99
2022-08-26T15:32:35.000Z,15.82
2022-08-26T15:37:35.000Z,16.67
2022-08-26T15:47:34.000Z,16.17
2022-08-26T15:52:35.000Z,16.34
2022-08-26T15:57:36.000Z,17.73
2022-08-26T16:02:41.000Z,19.15
2022-08-26T16:07:34.000Z,19.37
2022-08-26T16:12:35.000Z,18.64
2022-08-26T16:17:35.000Z,17.83
2022-08-26T16:22:38.000Z,17.14
2022-08-26T16:27:34.000Z,17.14
2022-08-26T16:32:41.000Z,18.97
2022-08-26T16:37:35.000Z,18.33
2022-08-26T16:42:34.000Z,19.49
2022-08-26T16:47:35.000Z,20.94
2022-08-26T16:52:40.000Z,21.96
2022-08-26T16:57:35.000Z,22.04
2022-08-26T17:02:35.000Z,20.71
2022-08-26T17:07:35.000Z,20.85
2022-08-26T17:12:34.000Z,21.1
2022-08-26T17:17:34.000Z,21.85
2022-08-26T17:22:34.000Z,22.5
2022-08-26T17:27:35.000Z,23.2
2022-08-26T17:32:35.000Z,23.7
2022-08-26T17:37:35.000Z,23.7
2022-08-26T17:47:34.000Z,26.29
2022-08-26T17:52:35.000Z,36.85
2022-08-26T17:57:34.000Z,61.31
2022-08-26T18:12:37.000Z,154.81
2022-08-26T18:17:35.000Z,125.2
2022-08-26T18:22:35.000Z,139.17
2022-08-26T18:27:34.000Z,136.69
2022-08-26T18:32:35.000Z,75.45
2022-08-26T18:37:41.000Z,52.89
2022-08-26T18:42:35.000Z,59.48
2022-08-26T18:47:34.000Z,55.11
2022-08-26T18:57:35.000Z,59.48
2022-08-26T19:02:35.000Z,65.93
2022-08-26T19:07:35.000Z,75.06
2022-08-26T19:12:37.000Z,81.6
2022-08-26T19:17:35.000Z,81.6
2022-08-26T19:22:34.000Z,107.15
2022-08-26T19:27:34.000Z,140.52
2022-08-26T19:32:35.000Z,106.31
2022-08-26T19:37:35.000Z,65.83
2022-08-26T19:42:34.000Z,119.96
2022-08-26T19:47:34.000Z,104.54
2022-08-26T19:52:40.000Z,83.61
2022-08-26T19:57:35.000Z,100.23
2022-08-26T20:02:35.000Z,108.95
2022-08-26T20:07:34.000Z,105.83
2022-08-26T20:12:35.000Z,112.98
2022-08-26T20:17:35.000Z,122.68
2022-08-26T20:22:35.000Z,88.48
2022-08-26T20:27:35.000Z,66.55
2022-08-26T20:32:35.000Z,66.55
2022-08-26T20:37:35.000Z,68.09
2022-08-26T20:42:35.000Z,69.54
2022-08-26T20:47:34.000Z,72.2
2022-08-26T20:52:34.000Z,79.03
2022-08-26T20:57:34.000Z,108.57
2022-08-26T21:02:35.000Z,104.31
2022-08-26T21:07:35.000Z,111.2
2022-08-26T21:12:35.000Z,102.75
2022-08-26T21:17:35.000Z,93.87
2022-08-26T21:22:35.000Z,83.36
2022-08-26T21:27:37.000Z,90.94
2022-08-26T21:32:35.000Z,99.98
2022-08-26T21:37:34.000Z,86.69
2022-08-26T21:42:35.000Z,85.16
2022-08-26T21:47:34.000Z,85.16
2022-08-26T21:52:34.000Z,84.42
2022-08-26T21:57:34.000Z,95.81
2022-08-26T22:02:34.000Z,95.76
2022-08-26T22:07:35.000Z,101.09
2022-08-26T22:12:35.000Z,138.63
2022-08-26T22:17:35.000Z,176.69
2022-08-26T22:22:35.000Z,195.16
2022-08-26T22:27:35.000Z,172.57
2022-08-26T22:32:34.000Z,121.65
2022-08-26T22:37:35.000Z,115.59
2022-08-26T22:42:35.000Z,96.48
2022-08-26T22:47:35.000Z,79.85
2022-08-26T22:52:34.000Z,83.32
2022-08-26T22:57:34.000Z,124.03
2022-08-26T23:02:34.000Z,124.03
2022-08-26T23:07:34.000Z,143.57
2022-08-26T23:12:35.000Z,132.06
2022-08-26T23:17:35.000Z,126.42
2022-08-26T23:22:34.000Z,151.43
2022-08-26T23:27:35.000Z,192.48
2022-08-26T23:32:34.000Z,178.95
2022-08-26T23:37:36.000Z,160.81
2022-08-26T23:42:39.000Z,144.02
2022-08-26T23:47:35.000Z,150.55
2022-08-26T23:52:35.000Z,165.85
2022-08-26T23:57:35.000Z,179.05
